sensor_id;sensor_type;location;lat;lon;timestamp;P1;durP1;ratioP1;P2;durP2;ratioP2
9526;SDS011;4802;51.494;6.770;2023-07-02T00:18:21;2.13;;;1.97;;
9526;SDS011;4802;51.494;6.770;2023-07-02T00:20:55;1.63;;;1.53;;
9526;SDS011;4802;51.494;6.770;2023-07-02T00:23:24;2.43;;;1.63;;
9526;SDS011;4802;51.494;6.770;2023-07-02T00:25:53;1.37;;;1.37;;
9526;SDS011;4802;51.494;6.770;2023-07-02T00:28:23;2.40;;;1.83;;
9526;SDS011;4802;51.494;6.770;2023-07-02T00:30:52;3.90;;;1.20;;
9526;SDS011;4802;51.494;6.770;2023-07-02T00:33:23;2.13;;;1.93;;
9526;SDS011;4802;51.494;6.770;2023-07-02T00:35:52;2.07;;;1.97;;
9526;SDS011;4802;51.494;6.770;2023-07-02T00:38:21;1.80;;;1.60;;
9526;SDS011;4802;51.494;6.770;2023-07-02T00:40:51;16.37;;;2.20;;
9526;SDS011;4802;51.494;6.770;2023-07-02T00:43:21;12.33;;;1.73;;
9526;SDS011;4802;51.494;6.770;2023-07-02T00:45:50;2.13;;;1.83;;
9526;SDS011;4802;51.494;6.770;2023-07-02T00:48:27;2.13;;;2.00;;
9526;SDS011;4802;51.494;6.770;2023-07-02T00:50:56;10.80;;;1.87;;
9526;SDS011;4802;51.494;6.770;2023-07-02T00:53:26;2.30;;;1.47;;
9526;SDS011;4802;51.494;6.770;2023-07-02T00:55:54;9.20;;;2.30;;
9526;SDS011;4802;51.494;6.770;2023-07-02T00:58:23;5.60;;;2.23;;
9526;SDS011;4802;51.494;6.770;2023-07-02T01:00:53;11.03;;;3.00;;
9526;SDS011;4802;51.494;6.770;2023-07-02T01:03:23;3.70;;;1.87;;
9526;SDS011;4802;51.494;6.770;2023-07-02T01:05:54;4.77;;;2.13;;
9526;SDS011;4802;51.494;6.770;2023-07-02T01:08:23;1.53;;;1.43;;
9526;SDS011;4802;51.494;6.770;2023-07-02T01:10:52;3.23;;;2.03;;
9526;SDS011;4802;51.494;6.770;2023-07-02T01:13:22;12.13;;;2.13;;
9526;SDS011;4802;51.494;6.770;2023-07-02T01:15:53;2.07;;;1.57;;
9526;SDS011;4802;51.494;6.770;2023-07-02T01:18:22;4.90;;;2.53;;
9526;SDS011;4802;51.494;6.770;2023-07-02T01:20:54;3.03;;;1.47;;
9526;SDS011;4802;51.494;6.770;2023-07-02T01:23:26;5.00;;;2.03;;
9526;SDS011;4802;51.494;6.770;2023-07-02T01:25:55;3.23;;;2.37;;
9526;SDS011;4802;51.494;6.770;2023-07-02T01:28:27;2.87;;;2.63;;
9526;SDS011;4802;51.494;6.770;2023-07-02T01:30:56;2.00;;;1.73;;
9526;SDS011;4802;51.494;6.770;2023-07-02T01:33:25;2.50;;;1.80;;
9526;SDS011;4802;51.494;6.770;2023-07-02T01:35:57;4.70;;;2.20;;
9526;SDS011;4802;51.494;6.770;2023-07-02T01:38:27;6.10;;;2.27;;
9526;SDS011;4802;51.494;6.770;2023-07-02T01:41:00;2.63;;;2.40;;
9526;SDS011;4802;51.494;6.770;2023-07-02T01:43:29;3.43;;;2.63;;
9526;SDS011;4802;51.494;6.770;2023-07-02T01:45:58;4.40;;;2.63;;
9526;SDS011;4802;51.494;6.770;2023-07-02T01:48:28;2.67;;;2.30;;
9526;SDS011;4802;51.494;6.770;2023-07-02T01:50:58;4.80;;;2.60;;
9526;SDS011;4802;51.494;6.770;2023-07-02T01:53:28;4.93;;;2.40;;
9526;SDS011;4802;51.494;6.770;2023-07-02T01:55:59;4.20;;;2.53;;
9526;SDS011;4802;51.494;6.770;2023-07-02T01:58:30;3.87;;;1.90;;
9526;SDS011;4802;51.494;6.770;2023-07-02T02:01:00;5.80;;;3.40;;
9526;SDS011;4802;51.494;6.770;2023-07-02T02:03:29;4.40;;;2.70;;
9526;SDS011;4802;51.494;6.770;2023-07-02T02:06:00;2.80;;;2.10;;
9526;SDS011;4802;51.494;6.770;2023-07-02T02:08:29;3.20;;;2.90;;
9526;SDS011;4802;51.494;6.770;2023-07-02T02:10:59;10.10;;;2.07;;
9526;SDS011;4802;51.494;6.770;2023-07-02T02:13:27;4.30;;;2.77;;
9526;SDS011;4802;51.494;6.770;2023-07-02T02:15:57;6.77;;;3.47;;
9526;SDS011;4802;51.494;6.770;2023-07-02T02:18:26;6.90;;;2.60;;
9526;SDS011;4802;51.494;6.770;2023-07-02T02:20:56;2.90;;;2.10;;
9526;SDS011;4802;51.494;6.770;2023-07-02T02:23:28;3.90;;;2.97;;
9526;SDS011;4802;51.494;6.770;2023-07-02T02:25:57;7.07;;;4.00;;
9526;SDS011;4802;51.494;6.770;2023-07-02T02:28:33;4.37;;;2.53;;
9526;SDS011;4802;51.494;6.770;2023-07-02T02:31:06;4.50;;;4.07;;
9526;SDS011;4802;51.494;6.770;2023-07-02T02:33:39;7.03;;;4.27;;
9526;SDS011;4802;51.494;6.770;2023-07-02T02:36:08;5.10;;;3.37;;
9526;SDS011;4802;51.494;6.770;2023-07-02T02:38:50;9.30;;;4.43;;
9526;SDS011;4802;51.494;6.770;2023-07-02T02:41:19;8.23;;;4.43;;
9526;SDS011;4802;51.494;6.770;2023-07-02T02:43:51;4.30;;;3.67;;
9526;SDS011;4802;51.494;6.770;2023-07-02T02:46:25;9.80;;;3.97;;
9526;SDS011;4802;51.494;6.770;2023-07-02T02:48:56;7.97;;;4.30;;
9526;SDS011;4802;51.494;6.770;2023-07-02T02:51:26;5.37;;;3.30;;
9526;SDS011;4802;51.494;6.770;2023-07-02T02:53:58;5.83;;;3.20;;
9526;SDS011;4802;51.494;6.770;2023-07-02T02:56:30;12.30;;;3.23;;
9526;SDS011;4802;51.494;6.770;2023-07-02T02:59:01;6.07;;;5.13;;
9526;SDS011;4802;51.494;6.770;2023-07-02T03:01:31;5.37;;;3.93;;
9526;SDS011;4802;51.494;6.770;2023-07-02T03:04:00;5.87;;;4.80;;
9526;SDS011;4802;51.494;6.770;2023-07-02T03:06:30;7.73;;;3.83;;
9526;SDS011;4802;51.494;6.770;2023-07-02T03:09:03;7.03;;;4.30;;
9526;SDS011;4802;51.494;6.770;2023-07-02T03:11:35;6.30;;;4.77;;
9526;SDS011;4802;51.494;6.770;2023-07-02T03:14:11;17.90;;;5.03;;
9526;SDS011;4802;51.494;6.770;2023-07-02T03:16:44;10.40;;;4.80;;
9526;SDS011;4802;51.494;6.770;2023-07-02T03:19:21;5.43;;;4.40;;
9526;SDS011;4802;51.494;6.770;2023-07-02T03:22:05;10.13;;;5.60;;
9526;SDS011;4802;51.494;6.770;2023-07-02T03:24:43;9.60;;;4.47;;
9526;SDS011;4802;51.494;6.770;2023-07-02T03:27:26;10.73;;;4.73;;
9526;SDS011;4802;51.494;6.770;2023-07-02T03:30:01;24.40;;;5.27;;
9526;SDS011;4802;51.494;6.770;2023-07-02T03:32:39;13.63;;;6.60;;
9526;SDS011;4802;51.494;6.770;2023-07-02T03:35:09;4.87;;;4.03;;
9526;SDS011;4802;51.494;6.770;2023-07-02T03:37:39;11.13;;;4.80;;
9526;SDS011;4802;51.494;6.770;2023-07-02T03:40:14;11.37;;;5.13;;
9526;SDS011;4802;51.494;6.770;2023-07-02T03:42:46;12.20;;;5.57;;
9526;SDS011;4802;51.494;6.770;2023-07-02T03:45:16;13.47;;;5.70;;
9526;SDS011;4802;51.494;6.770;2023-07-02T03:47:48;11.30;;;5.20;;
9526;SDS011;4802;51.494;6.770;2023-07-02T03:50:39;7.33;;;4.80;;
9526;SDS011;4802;51.494;6.770;2023-07-02T03:53:08;8.83;;;4.37;;
9526;SDS011;4802;51.494;6.770;2023-07-02T03:55:40;11.20;;;5.83;;
9526;SDS011;4802;51.494;6.770;2023-07-02T03:58:14;7.37;;;5.60;;
9526;SDS011;4802;51.494;6.770;2023-07-02T04:00:46;16.60;;;5.70;;
9526;SDS011;4802;51.494;6.770;2023-07-02T04:03:18;10.73;;;7.00;;
9526;SDS011;4802;51.494;6.770;2023-07-02T04:05:54;15.33;;;6.60;;
9526;SDS011;4802;51.494;6.770;2023-07-02T04:08:38;6.47;;;4.00;;
9526;SDS011;4802;51.494;6.770;2023-07-02T04:11:26;11.60;;;5.73;;
9526;SDS011;4802;51.494;6.770;2023-07-02T04:14:08;10.87;;;5.40;;
9526;SDS011;4802;51.494;6.770;2023-07-02T04:16:43;12.10;;;5.27;;
9526;SDS011;4802;51.494;6.770;2023-07-02T04:19:13;14.57;;;5.20;;
9526;SDS011;4802;51.494;6.770;2023-07-02T04:21:46;6.73;;;4.43;;
9526;SDS011;4802;51.494;6.770;2023-07-02T04:24:18;5.40;;;3.77;;
9526;SDS011;4802;51.494;6.770;2023-07-02T04:26:49;8.03;;;5.00;;
9526;SDS011;4802;51.494;6.770;2023-07-02T04:29:41;9.77;;;5.43;;
9526;SDS011;4802;51.494;6.770;2023-07-02T04:32:11;13.07;;;5.00;;
9526;SDS011;4802;51.494;6.770;2023-07-02T04:34:46;6.87;;;5.07;;
9526;SDS011;4802;51.494;6.770;2023-07-02T04:37:26;12.40;;;5.67;;
9526;SDS011;4802;51.494;6.770;2023-07-02T04:40:15;14.70;;;6.00;;
9526;SDS011;4802;51.494;6.770;2023-07-02T04:42:46;8.43;;;4.83;;
9526;SDS011;4802;51.494;6.770;2023-07-02T04:45:24;9.63;;;6.80;;
9526;SDS011;4802;51.494;6.770;2023-07-02T04:48:05;10.67;;;5.80;;
9526;SDS011;4802;51.494;6.770;2023-07-02T04:50:36;12.80;;;6.77;;
9526;SDS011;4802;51.494;6.770;2023-07-02T04:53:09;15.73;;;6.27;;
9526;SDS011;4802;51.494;6.770;2023-07-02T04:55:42;7.53;;;6.80;;
9526;SDS011;4802;51.494;6.770;2023-07-02T04:58:12;9.90;;;5.30;;
9526;SDS011;4802;51.494;6.770;2023-07-02T05:00:43;9.97;;;5.30;;
9526;SDS011;4802;51.494;6.770;2023-07-02T05:03:25;7.07;;;5.40;;
9526;SDS011;4802;51.494;6.770;2023-07-02T05:05:56;11.17;;;5.27;;
9526;SDS011;4802;51.494;6.770;2023-07-02T05:08:31;8.20;;;6.83;;
9526;SDS011;4802;51.494;6.770;2023-07-02T05:11:00;11.10;;;6.50;;
9526;SDS011;4802;51.494;6.770;2023-07-02T05:13:35;11.60;;;6.27;;
9526;SDS011;4802;51.494;6.770;2023-07-02T05:16:05;10.93;;;7.60;;
9526;SDS011;4802;51.494;6.770;2023-07-02T05:18:41;9.73;;;4.37;;
9526;SDS011;4802;51.494;6.770;2023-07-02T05:21:17;14.40;;;5.80;;
9526;SDS011;4802;51.494;6.770;2023-07-02T05:23:55;8.20;;;5.60;;
9526;SDS011;4802;51.494;6.770;2023-07-02T05:26:27;13.70;;;5.93;;
9526;SDS011;4802;51.494;6.770;2023-07-02T05:29:05;11.17;;;5.90;;
9526;SDS011;4802;51.494;6.770;2023-07-02T05:31:37;12.57;;;7.63;;
9526;SDS011;4802;51.494;6.770;2023-07-02T05:34:09;17.50;;;5.70;;
9526;SDS011;4802;51.494;6.770;2023-07-02T05:36:45;11.67;;;6.20;;
9526;SDS011;4802;51.494;6.770;2023-07-02T05:39:16;10.57;;;6.63;;
9526;SDS011;4802;51.494;6.770;2023-07-02T05:42:01;14.17;;;5.40;;
9526;SDS011;4802;51.494;6.770;2023-07-02T05:44:37;12.50;;;5.97;;
9526;SDS011;4802;51.494;6.770;2023-07-02T05:47:11;11.30;;;5.80;;
9526;SDS011;4802;51.494;6.770;2023-07-02T05:49:45;9.80;;;5.50;;
9526;SDS011;4802;51.494;6.770;2023-07-02T05:52:16;13.60;;;6.63;;
9526;SDS011;4802;51.494;6.770;2023-07-02T05:54:48;13.30;;;6.77;;
9526;SDS011;4802;51.494;6.770;2023-07-02T05:57:20;11.90;;;6.87;;
9526;SDS011;4802;51.494;6.770;2023-07-02T05:59:49;5.37;;;3.77;;
9526;SDS011;4802;51.494;6.770;2023-07-02T06:02:19;10.10;;;6.70;;
9526;SDS011;4802;51.494;6.770;2023-07-02T06:04:52;5.73;;;4.10;;
9526;SDS011;4802;51.494;6.770;2023-07-02T06:07:21;6.77;;;5.80;;
9526;SDS011;4802;51.494;6.770;2023-07-02T06:12:59;13.27;;;7.87;;
9526;SDS011;4802;51.494;6.770;2023-07-02T06:15:43;10.73;;;5.87;;
9526;SDS011;4802;51.494;6.770;2023-07-02T06:18:24;10.00;;;5.20;;
9526;SDS011;4802;51.494;6.770;2023-07-02T06:20:55;8.23;;;5.37;;
9526;SDS011;4802;51.494;6.770;2023-07-02T06:23:40;7.67;;;4.50;;
9526;SDS011;4802;51.494;6.770;2023-07-02T06:26:10;10.90;;;5.00;;
9526;SDS011;4802;51.494;6.770;2023-07-02T06:34:27;14.23;;;6.50;;
9526;SDS011;4802;51.494;6.770;2023-07-02T06:37:06;8.43;;;5.43;;
9526;SDS011;4802;51.494;6.770;2023-07-02T06:39:47;8.10;;;4.90;;
9526;SDS011;4802;51.494;6.770;2023-07-02T06:42:22;9.73;;;4.80;;
9526;SDS011;4802;51.494;6.770;2023-07-02T06:44:55;10.33;;;6.23;;
9526;SDS011;4802;51.494;6.770;2023-07-02T06:47:47;9.50;;;5.20;;
9526;SDS011;4802;51.494;6.770;2023-07-02T06:50:42;8.97;;;4.63;;
9526;SDS011;4802;51.494;6.770;2023-07-02T06:53:13;8.63;;;4.87;;
9526;SDS011;4802;51.494;6.770;2023-07-02T06:55:47;14.83;;;7.50;;
9526;SDS011;4802;51.494;6.770;2023-07-02T06:58:19;9.93;;;5.60;;
9526;SDS011;4802;51.494;6.770;2023-07-02T07:00:55;11.83;;;5.50;;
9526;SDS011;4802;51.494;6.770;2023-07-02T07:03:27;11.97;;;6.63;;
9526;SDS011;4802;51.494;6.770;2023-07-02T07:06:03;14.70;;;5.63;;
9526;SDS011;4802;51.494;6.770;2023-07-02T07:08:36;10.20;;;6.47;;
9526;SDS011;4802;51.494;6.770;2023-07-02T07:11:10;8.40;;;5.57;;
9526;SDS011;4802;51.494;6.770;2023-07-02T07:13:42;9.13;;;4.50;;
9526;SDS011;4802;51.494;6.770;2023-07-02T07:16:11;12.03;;;4.70;;
9526;SDS011;4802;51.494;6.770;2023-07-02T07:18:41;7.17;;;5.20;;
9526;SDS011;4802;51.494;6.770;2023-07-02T07:21:16;17.73;;;5.03;;
9526;SDS011;4802;51.494;6.770;2023-07-02T07:23:48;7.00;;;3.87;;
9526;SDS011;4802;51.494;6.770;2023-07-02T07:26:19;10.60;;;5.23;;
9526;SDS011;4802;51.494;6.770;2023-07-02T07:28:51;9.30;;;4.10;;
9526;SDS011;4802;51.494;6.770;2023-07-02T07:31:23;10.07;;;4.47;;
9526;SDS011;4802;51.494;6.770;2023-07-02T07:33:56;7.90;;;4.50;;
9526;SDS011;4802;51.494;6.770;2023-07-02T07:36:34;11.50;;;5.00;;
9526;SDS011;4802;51.494;6.770;2023-07-02T07:39:07;16.67;;;5.10;;
9526;SDS011;4802;51.494;6.770;2023-07-02T07:41:43;12.53;;;6.23;;
9526;SDS011;4802;51.494;6.770;2023-07-02T07:44:18;7.27;;;4.90;;
9526;SDS011;4802;51.494;6.770;2023-07-02T07:46:50;17.70;;;6.00;;
9526;SDS011;4802;51.494;6.770;2023-07-02T07:49:28;12.10;;;6.27;;
9526;SDS011;4802;51.494;6.770;2023-07-02T07:52:08;15.33;;;5.47;;
9526;SDS011;4802;51.494;6.770;2023-07-02T07:54:40;11.77;;;5.90;;
9526;SDS011;4802;51.494;6.770;2023-07-02T07:57:16;10.43;;;5.00;;
9526;SDS011;4802;51.494;6.770;2023-07-02T08:00:01;14.10;;;4.73;;
9526;SDS011;4802;51.494;6.770;2023-07-02T08:02:44;10.23;;;4.77;;
9526;SDS011;4802;51.494;6.770;2023-07-02T08:05:15;8.43;;;4.60;;
9526;SDS011;4802;51.494;6.770;2023-07-02T08:07:48;9.00;;;4.60;;
9526;SDS011;4802;51.494;6.770;2023-07-02T08:10:21;5.23;;;3.87;;
9526;SDS011;4802;51.494;6.770;2023-07-02T08:12:58;8.53;;;4.67;;
9526;SDS011;4802;51.494;6.770;2023-07-02T08:15:30;11.10;;;4.40;;
9526;SDS011;4802;51.494;6.770;2023-07-02T08:18:00;7.13;;;4.20;;
9526;SDS011;4802;51.494;6.770;2023-07-02T08:20:34;6.77;;;4.20;;
9526;SDS011;4802;51.494;6.770;2023-07-02T08:23:06;6.70;;;3.80;;
9526;SDS011;4802;51.494;6.770;2023-07-02T08:25:44;7.27;;;3.40;;
9526;SDS011;4802;51.494;6.770;2023-07-02T08:28:15;3.80;;;3.50;;
9526;SDS011;4802;51.494;6.770;2023-07-02T08:30:49;10.23;;;4.83;;
9526;SDS011;4802;51.494;6.770;2023-07-02T08:33:24;11.60;;;5.07;;
9526;SDS011;4802;51.494;6.770;2023-07-02T08:36:14;12.03;;;3.07;;
9526;SDS011;4802;51.494;6.770;2023-07-02T08:38:51;4.93;;;3.53;;
9526;SDS011;4802;51.494;6.770;2023-07-02T08:41:23;9.50;;;3.40;;
9526;SDS011;4802;51.494;6.770;2023-07-02T08:44:18;6.60;;;3.20;;
9526;SDS011;4802;51.494;6.770;2023-07-02T08:47:15;8.67;;;3.60;;
9526;SDS011;4802;51.494;6.770;2023-07-02T08:49:54;6.17;;;4.20;;
9526;SDS011;4802;51.494;6.770;2023-07-02T08:52:25;4.37;;;3.00;;
9526;SDS011;4802;51.494;6.770;2023-07-02T08:55:06;8.20;;;4.20;;
9526;SDS011;4802;51.494;6.770;2023-07-02T08:57:42;3.80;;;3.07;;
9526;SDS011;4802;51.494;6.770;2023-07-02T09:00:29;5.77;;;3.50;;
9526;SDS011;4802;51.494;6.770;2023-07-02T09:03:14;4.53;;;3.03;;
9526;SDS011;4802;51.494;6.770;2023-07-02T09:05:57;5.00;;;3.00;;
9526;SDS011;4802;51.494;6.770;2023-07-02T09:09:03;4.23;;;3.80;;
9526;SDS011;4802;51.494;6.770;2023-07-02T09:14:33;12.03;;;4.50;;
9526;SDS011;4802;51.494;6.770;2023-07-02T09:17:20;5.77;;;4.03;;
9526;SDS011;4802;51.494;6.770;2023-07-02T09:19:57;19.73;;;4.33;;
9526;SDS011;4802;51.494;6.770;2023-07-02T09:22:53;5.20;;;3.70;;
9526;SDS011;4802;51.494;6.770;2023-07-02T09:25:38;10.07;;;4.03;;
9526;SDS011;4802;51.494;6.770;2023-07-02T09:28:40;6.53;;;3.70;;
9526;SDS011;4802;51.494;6.770;2023-07-02T09:31:25;7.20;;;4.50;;
9526;SDS011;4802;51.494;6.770;2023-07-02T09:34:08;5.00;;;3.03;;
9526;SDS011;4802;51.494;6.770;2023-07-02T09:37:05;15.23;;;4.50;;
9526;SDS011;4802;51.494;6.770;2023-07-02T09:39:50;7.93;;;3.87;;
9526;SDS011;4802;51.494;6.770;2023-07-02T09:42:49;7.73;;;3.70;;
9526;SDS011;4802;51.494;6.770;2023-07-02T09:45:52;5.00;;;3.20;;
9526;SDS011;4802;51.494;6.770;2023-07-02T10:57:42;9.30;;;4.13;;
9526;SDS011;4802;51.494;6.770;2023-07-02T11:00:49;13.20;;;4.00;;
9526;SDS011;4802;51.494;6.770;2023-07-02T11:07:22;9.60;;;4.53;;
9526;SDS011;4802;51.494;6.770;2023-07-02T13:59:54;14.03;;;5.70;;
9526;SDS011;4802;51.494;6.770;2023-07-02T20:25:48;7.33;;;1.90;;
9526;SDS011;4802;51.494;6.770;2023-07-02T20:28:49;4.32;;;2.42;;
9526;SDS011;4802;51.494;6.770;2023-07-02T20:31:45;5.20;;;2.60;;
9526;SDS011;4802;51.494;6.770;2023-07-02T20:34:32;3.90;;;3.30;;
9526;SDS011;4802;51.494;6.770;2023-07-02T20:37:19;7.23;;;1.93;;
9526;SDS011;4802;51.494;6.770;2023-07-02T20:40:18;2.70;;;1.90;;
9526;SDS011;4802;51.494;6.770;2023-07-02T20:42:56;3.67;;;2.30;;
9526;SDS011;4802;51.494;6.770;2023-07-02T20:45:28;4.13;;;2.37;;
9526;SDS011;4802;51.494;6.770;2023-07-02T20:47:59;2.50;;;1.83;;
9526;SDS011;4802;51.494;6.770;2023-07-02T20:50:43;3.83;;;2.70;;
9526;SDS011;4802;51.494;6.770;2023-07-02T20:53:41;5.30;;;2.13;;
9526;SDS011;4802;51.494;6.770;2023-07-02T20:56:25;16.87;;;3.37;;
9526;SDS011;4802;51.494;6.770;2023-07-02T21:05:18;10.13;;;3.33;;
9526;SDS011;4802;51.494;6.770;2023-07-02T21:07:53;6.17;;;3.63;;
9526;SDS011;4802;51.494;6.770;2023-07-02T21:10:55;10.27;;;4.60;;
9526;SDS011;4802;51.494;6.770;2023-07-02T21:13:58;12.40;;;3.23;;
9526;SDS011;4802;51.494;6.770;2023-07-02T21:16:45;7.03;;;4.50;;
9526;SDS011;4802;51.494;6.770;2023-07-02T21:19:44;15.40;;;3.33;;
9526;SDS011;4802;51.494;6.770;2023-07-02T21:22:35;5.43;;;2.47;;
9526;SDS011;4802;51.494;6.770;2023-07-02T21:25:18;8.03;;;4.17;;
9526;SDS011;4802;51.494;6.770;2023-07-02T21:27:48;10.07;;;3.10;;
9526;SDS011;4802;51.494;6.770;2023-07-02T21:30:32;11.10;;;3.50;;
9526;SDS011;4802;51.494;6.770;2023-07-02T21:33:17;2.40;;;2.20;;
9526;SDS011;4802;51.494;6.770;2023-07-02T21:36:20;5.07;;;2.03;;
9526;SDS011;4802;51.494;6.770;2023-07-02T21:42:33;5.27;;;2.60;;
9526;SDS011;4802;51.494;6.770;2023-07-02T21:45:17;4.93;;;3.33;;
9526;SDS011;4802;51.494;6.770;2023-07-02T21:48:02;5.80;;;2.80;;
9526;SDS011;4802;51.494;6.770;2023-07-02T21:50:33;2.70;;;2.03;;
9526;SDS011;4802;51.494;6.770;2023-07-02T21:53:12;4.40;;;2.50;;
9526;SDS011;4802;51.494;6.770;2023-07-02T21:58:58;4.37;;;3.27;;
9526;SDS011;4802;51.494;6.770;2023-07-02T22:01:30;4.10;;;3.10;;
9526;SDS011;4802;51.494;6.770;2023-07-02T22:04:00;5.03;;;2.50;;
9526;SDS011;4802;51.494;6.770;2023-07-02T22:06:55;11.83;;;3.30;;
9526;SDS011;4802;51.494;6.770;2023-07-02T22:09:30;9.23;;;3.70;;
9526;SDS011;4802;51.494;6.770;2023-07-02T22:12:04;6.13;;;3.13;;
9526;SDS011;4802;51.494;6.770;2023-07-02T22:14:38;2.43;;;2.27;;
9526;SDS011;4802;51.494;6.770;2023-07-02T22:17:08;5.93;;;2.80;;
9526;SDS011;4802;51.494;6.770;2023-07-02T22:19:50;4.87;;;2.57;;
9526;SDS011;4802;51.494;6.770;2023-07-02T22:22:22;2.30;;;2.10;;
9526;SDS011;4802;51.494;6.770;2023-07-02T22:25:09;5.43;;;2.23;;
9526;SDS011;4802;51.494;6.770;2023-07-02T22:27:46;24.30;;;8.43;;
9526;SDS011;4802;51.494;6.770;2023-07-02T22:30:19;5.97;;;2.30;;
9526;SDS011;4802;51.494;6.770;2023-07-02T22:33:06;7.90;;;2.87;;
9526;SDS011;4802;51.494;6.770;2023-07-02T22:35:55;2.30;;;1.17;;
9526;SDS011;4802;51.494;6.770;2023-07-02T22:38:53;2.60;;;2.10;;
9526;SDS011;4802;51.494;6.770;2023-07-02T22:41:43;5.93;;;3.47;;
9526;SDS011;4802;51.494;6.770;2023-07-02T22:44:32;7.70;;;3.33;;
9526;SDS011;4802;51.494;6.770;2023-07-02T22:50:04;6.90;;;2.00;;
9526;SDS011;4802;51.494;6.770;2023-07-02T22:52:51;2.60;;;2.20;;
9526;SDS011;4802;51.494;6.770;2023-07-02T22:55:49;9.17;;;2.53;;
9526;SDS011;4802;51.494;6.770;2023-07-02T22:58:45;2.50;;;1.47;;
9526;SDS011;4802;51.494;6.770;2023-07-02T23:01:16;2.50;;;1.93;;
9526;SDS011;4802;51.494;6.770;2023-07-02T23:04:24;4.37;;;2.33;;
9526;SDS011;4802;51.494;6.770;2023-07-02T23:19:14;4.00;;;1.13;;
9526;SDS011;4802;51.494;6.770;2023-07-02T23:22:01;4.67;;;1.90;;
9526;SDS011;4802;51.494;6.770;2023-07-02T23:25:00;5.33;;;1.57;;
9526;SDS011;4802;51.494;6.770;2023-07-02T23:28:00;1.80;;;1.70;;
9526;SDS011;4802;51.494;6.770;2023-07-02T23:30:56;6.10;;;1.20;;
9526;SDS011;4802;51.494;6.770;2023-07-02T23:33:53;2.77;;;1.40;;
9526;SDS011;4802;51.494;6.770;2023-07-02T23:39:21;9.37;;;2.10;;
9526;SDS011;4802;51.494;6.770;2023-07-02T23:41:53;1.57;;;0.97;;
9526;SDS011;4802;51.494;6.770;2023-07-02T23:44:41;4.30;;;1.43;;
9526;SDS011;4802;51.494;6.770;2023-07-02T23:47:27;1.90;;;1.70;;
9526;SDS011;4802;51.494;6.770;2023-07-02T23:50:14;2.00;;;1.03;;
9526;SDS011;4802;51.494;6.770;2023-07-02T23:53:12;2.60;;;1.60;;
9526;SDS011;4802;51.494;6.770;2023-07-02T23:56:04;3.93;;;1.50;;
9526;SDS011;4802;51.494;6.770;2023-07-02T23:59:04;3.40;;;1.87;;
